sensor_id;sensor_type;location;lat;lon;timestamp;P1;durP1;ratioP1;P2;durP2;ratioP2
75937;SDS011;64615;32.062;34.834;2023-10-19T00:00:54;9.05;;;3.90;;
75937;SDS011;64615;32.062;34.834;2023-10-19T00:03:21;11.00;;;3.90;;
75937;SDS011;64615;32.062;34.834;2023-10-19T00:05:48;9.75;;;4.28;;
75937;SDS011;64615;32.062;34.834;2023-10-19T00:08:15;8.93;;;3.78;;
75937;SDS011;64615;32.062;34.834;2023-10-19T00:10:51;8.88;;;3.97;;
75937;SDS011;64615;32.062;34.834;2023-10-19T00:13:41;10.95;;;3.92;;
75937;SDS011;64615;32.062;34.834;2023-10-19T00:16:09;9.43;;;4.15;;
75937;SDS011;64615;32.062;34.834;2023-10-19T00:18:48;11.07;;;4.47;;
75937;SDS011;64615;32.062;34.834;2023-10-19T00:21:15;9.98;;;4.40;;
75937;SDS011;64615;32.062;34.834;2023-10-19T00:23:46;8.57;;;4.10;;
75937;SDS011;64615;32.062;34.834;2023-10-19T00:26:13;11.40;;;4.43;;
75937;SDS011;64615;32.062;34.834;2023-10-19T00:28:45;9.68;;;4.32;;
75937;SDS011;64615;32.062;34.834;2023-10-19T00:31:14;11.23;;;4.65;;
75937;SDS011;64615;32.062;34.834;2023-10-19T00:33:41;9.15;;;4.00;;
75937;SDS011;64615;32.062;34.834;2023-10-19T00:36:11;11.25;;;4.32;;
75937;SDS011;64615;32.062;34.834;2023-10-19T00:38:41;12.35;;;4.50;;
75937;SDS011;64615;32.062;34.834;2023-10-19T00:41:22;9.73;;;4.50;;
75937;SDS011;64615;32.062;34.834;2023-10-19T00:43:55;8.25;;;4.07;;
75937;SDS011;64615;32.062;34.834;2023-10-19T00:46:30;10.88;;;4.28;;
75937;SDS011;64615;32.062;34.834;2023-10-19T00:49:09;10.32;;;4.63;;
75937;SDS011;64615;32.062;34.834;2023-10-19T00:51:40;11.27;;;4.63;;
75937;SDS011;64615;32.062;34.834;2023-10-19T00:54:18;9.07;;;4.57;;
75937;SDS011;64615;32.062;34.834;2023-10-19T00:56:56;8.77;;;4.07;;
75937;SDS011;64615;32.062;34.834;2023-10-19T00:59:29;11.13;;;4.72;;
75937;SDS011;64615;32.062;34.834;2023-10-19T01:02:01;11.20;;;4.50;;
75937;SDS011;64615;32.062;34.834;2023-10-19T01:04:42;9.73;;;4.80;;
75937;SDS011;64615;32.062;34.834;2023-10-19T01:09:47;10.88;;;4.57;;
75937;SDS011;64615;32.062;34.834;2023-10-19T01:12:13;10.00;;;4.38;;
75937;SDS011;64615;32.062;34.834;2023-10-19T01:15:02;11.88;;;4.40;;
75937;SDS011;64615;32.062;34.834;2023-10-19T01:17:40;10.73;;;4.60;;
75937;SDS011;64615;32.062;34.834;2023-10-19T01:20:09;12.13;;;4.63;;
75937;SDS011;64615;32.062;34.834;2023-10-19T01:23:09;12.93;;;4.65;;
75937;SDS011;64615;32.062;34.834;2023-10-19T01:28:07;11.60;;;4.35;;
75937;SDS011;64615;32.062;34.834;2023-10-19T01:30:38;11.82;;;4.80;;
75937;SDS011;64615;32.062;34.834;2023-10-19T01:33:04;11.55;;;4.85;;
75937;SDS011;64615;32.062;34.834;2023-10-19T01:35:38;9.48;;;4.55;;
75937;SDS011;64615;32.062;34.834;2023-10-19T01:38:22;10.35;;;4.57;;
75937;SDS011;64615;32.062;34.834;2023-10-19T01:40:48;10.85;;;4.88;;
75937;SDS011;64615;32.062;34.834;2023-10-19T01:43:16;12.00;;;4.82;;
75937;SDS011;64615;32.062;34.834;2023-10-19T01:45:47;11.38;;;5.25;;
75937;SDS011;64615;32.062;34.834;2023-10-19T01:48:13;14.15;;;5.20;;
75937;SDS011;64615;32.062;34.834;2023-10-19T01:50:40;11.95;;;4.68;;
75937;SDS011;64615;32.062;34.834;2023-10-19T01:53:06;13.85;;;5.28;;
75937;SDS011;64615;32.062;34.834;2023-10-19T01:55:44;11.48;;;5.47;;
75937;SDS011;64615;32.062;34.834;2023-10-19T01:58:12;12.20;;;4.97;;
75937;SDS011;64615;32.062;34.834;2023-10-19T02:00:39;12.93;;;5.40;;
75937;SDS011;64615;32.062;34.834;2023-10-19T02:03:09;9.65;;;4.97;;
75937;SDS011;64615;32.062;34.834;2023-10-19T02:05:34;11.50;;;5.28;;
75937;SDS011;64615;32.062;34.834;2023-10-19T02:08:07;12.32;;;5.15;;
75937;SDS011;64615;32.062;34.834;2023-10-19T02:10:36;13.57;;;5.53;;
75937;SDS011;64615;32.062;34.834;2023-10-19T02:13:07;14.07;;;5.25;;
75937;SDS011;64615;32.062;34.834;2023-10-19T02:15:34;9.73;;;5.03;;
75937;SDS011;64615;32.062;34.834;2023-10-19T02:18:01;12.70;;;5.20;;
75937;SDS011;64615;32.062;34.834;2023-10-19T02:20:28;11.18;;;5.22;;
75937;SDS011;64615;32.062;34.834;2023-10-19T02:22:57;15.75;;;5.72;;
75937;SDS011;64615;32.062;34.834;2023-10-19T02:25:23;14.15;;;5.78;;
75937;SDS011;64615;32.062;34.834;2023-10-19T02:27:53;12.00;;;5.53;;
75937;SDS011;64615;32.062;34.834;2023-10-19T02:30:19;12.88;;;5.90;;
75937;SDS011;64615;32.062;34.834;2023-10-19T02:32:45;12.95;;;5.93;;
75937;SDS011;64615;32.062;34.834;2023-10-19T02:35:13;11.50;;;5.50;;
75937;SDS011;64615;32.062;34.834;2023-10-19T02:37:40;13.25;;;5.45;;
75937;SDS011;64615;32.062;34.834;2023-10-19T02:40:05;11.93;;;5.55;;
75937;SDS011;64615;32.062;34.834;2023-10-19T02:42:47;11.80;;;5.47;;
75937;SDS011;64615;32.062;34.834;2023-10-19T02:45:14;12.07;;;5.75;;
75937;SDS011;64615;32.062;34.834;2023-10-19T02:47:42;14.50;;;5.75;;
75937;SDS011;64615;32.062;34.834;2023-10-19T02:50:09;12.18;;;5.80;;
75937;SDS011;64615;32.062;34.834;2023-10-19T02:52:38;15.25;;;5.82;;
75937;SDS011;64615;32.062;34.834;2023-10-19T02:55:06;13.07;;;5.85;;
75937;SDS011;64615;32.062;34.834;2023-10-19T02:57:33;13.63;;;5.85;;
75937;SDS011;64615;32.062;34.834;2023-10-19T02:59:58;14.13;;;6.03;;
75937;SDS011;64615;32.062;34.834;2023-10-19T03:02:25;14.45;;;6.15;;
75937;SDS011;64615;32.062;34.834;2023-10-19T03:04:54;14.10;;;6.50;;
75937;SDS011;64615;32.062;34.834;2023-10-19T03:07:20;12.93;;;6.32;;
75937;SDS011;64615;32.062;34.834;2023-10-19T03:09:45;13.55;;;5.70;;
75937;SDS011;64615;32.062;34.834;2023-10-19T03:12:14;14.70;;;6.43;;
75937;SDS011;64615;32.062;34.834;2023-10-19T03:14:40;17.65;;;6.05;;
75937;SDS011;64615;32.062;34.834;2023-10-19T03:17:12;15.43;;;6.28;;
75937;SDS011;64615;32.062;34.834;2023-10-19T03:19:38;15.05;;;6.43;;
75937;SDS011;64615;32.062;34.834;2023-10-19T03:22:03;16.95;;;5.63;;
75937;SDS011;64615;32.062;34.834;2023-10-19T03:24:31;14.55;;;5.97;;
75937;SDS011;64615;32.062;34.834;2023-10-19T03:27:09;11.15;;;5.32;;
75937;SDS011;64615;32.062;34.834;2023-10-19T03:29:48;14.40;;;6.35;;
75937;SDS011;64615;32.062;34.834;2023-10-19T03:32:25;14.63;;;5.93;;
75937;SDS011;64615;32.062;34.834;2023-10-19T03:35:00;15.32;;;6.57;;
75937;SDS011;64615;32.062;34.834;2023-10-19T03:37:26;14.27;;;6.18;;
75937;SDS011;64615;32.062;34.834;2023-10-19T03:39:56;16.23;;;6.43;;
75937;SDS011;64615;32.062;34.834;2023-10-19T03:42:22;19.20;;;6.32;;
75937;SDS011;64615;32.062;34.834;2023-10-19T03:44:51;17.40;;;6.15;;
75937;SDS011;64615;32.062;34.834;2023-10-19T03:47:20;21.00;;;6.70;;
75937;SDS011;64615;32.062;34.834;2023-10-19T03:50:02;23.50;;;6.88;;
75937;SDS011;64615;32.062;34.834;2023-10-19T03:52:32;25.65;;;7.55;;
75937;SDS011;64615;32.062;34.834;2023-10-19T03:55:02;22.85;;;7.13;;
75937;SDS011;64615;32.062;34.834;2023-10-19T03:57:31;20.20;;;7.13;;
75937;SDS011;64615;32.062;34.834;2023-10-19T04:00:00;19.00;;;7.00;;
75937;SDS011;64615;32.062;34.834;2023-10-19T04:02:25;18.90;;;7.07;;
75937;SDS011;64615;32.062;34.834;2023-10-19T04:05:00;17.42;;;6.25;;
75937;SDS011;64615;32.062;34.834;2023-10-19T04:07:28;18.38;;;6.85;;
75937;SDS011;64615;32.062;34.834;2023-10-19T04:09:56;18.13;;;6.97;;
75937;SDS011;64615;32.062;34.834;2023-10-19T04:12:38;20.45;;;6.65;;
75937;SDS011;64615;32.062;34.834;2023-10-19T04:15:08;18.10;;;6.75;;
75937;SDS011;64615;32.062;34.834;2023-10-19T04:17:40;16.42;;;6.60;;
75937;SDS011;64615;32.062;34.834;2023-10-19T04:20:13;23.70;;;6.38;;
75937;SDS011;64615;32.062;34.834;2023-10-19T04:22:44;14.98;;;6.38;;
75937;SDS011;64615;32.062;34.834;2023-10-19T04:25:15;17.17;;;6.68;;
75937;SDS011;64615;32.062;34.834;2023-10-19T04:27:43;16.20;;;6.32;;
75937;SDS011;64615;32.062;34.834;2023-10-19T04:30:10;13.57;;;6.25;;
75937;SDS011;64615;32.062;34.834;2023-10-19T04:33:02;16.48;;;6.28;;
75937;SDS011;64615;32.062;34.834;2023-10-19T04:35:28;14.13;;;5.78;;
75937;SDS011;64615;32.062;34.834;2023-10-19T04:37:59;14.50;;;5.90;;
75937;SDS011;64615;32.062;34.834;2023-10-19T04:40:26;14.38;;;5.70;;
75937;SDS011;64615;32.062;34.834;2023-10-19T04:42:52;14.95;;;5.97;;
75937;SDS011;64615;32.062;34.834;2023-10-19T04:45:19;16.55;;;5.70;;
75937;SDS011;64615;32.062;34.834;2023-10-19T04:47:45;15.18;;;5.82;;
75937;SDS011;64615;32.062;34.834;2023-10-19T04:50:11;15.88;;;6.10;;
75937;SDS011;64615;32.062;34.834;2023-10-19T04:52:37;16.60;;;5.88;;
75937;SDS011;64615;32.062;34.834;2023-10-19T04:55:04;12.23;;;5.22;;
75937;SDS011;64615;32.062;34.834;2023-10-19T04:57:30;11.93;;;5.10;;
75937;SDS011;64615;32.062;34.834;2023-10-19T04:59:56;11.57;;;5.05;;
75937;SDS011;64615;32.062;34.834;2023-10-19T05:02:22;14.80;;;5.20;;
75937;SDS011;64615;32.062;34.834;2023-10-19T05:04:48;11.57;;;5.20;;
75937;SDS011;64615;32.062;34.834;2023-10-19T05:07:14;14.95;;;5.05;;
75937;SDS011;64615;32.062;34.834;2023-10-19T05:09:43;11.98;;;4.53;;
75937;SDS011;64615;32.062;34.834;2023-10-19T05:12:10;14.38;;;5.38;;
75937;SDS011;64615;32.062;34.834;2023-10-19T05:14:36;10.77;;;4.93;;
75937;SDS011;64615;32.062;34.834;2023-10-19T05:17:03;11.65;;;4.53;;
75937;SDS011;64615;32.062;34.834;2023-10-19T05:19:34;14.48;;;4.75;;
75937;SDS011;64615;32.062;34.834;2023-10-19T05:22:01;11.80;;;5.05;;
75937;SDS011;64615;32.062;34.834;2023-10-19T05:24:28;13.85;;;4.93;;
75937;SDS011;64615;32.062;34.834;2023-10-19T05:26:55;12.82;;;4.30;;
75937;SDS011;64615;32.062;34.834;2023-10-19T05:29:21;10.80;;;4.38;;
75937;SDS011;64615;32.062;34.834;2023-10-19T05:31:50;14.98;;;5.15;;
75937;SDS011;64615;32.062;34.834;2023-10-19T05:34:19;12.02;;;4.72;;
75937;SDS011;64615;32.062;34.834;2023-10-19T05:36:46;14.52;;;4.68;;
75937;SDS011;64615;32.062;34.834;2023-10-19T05:39:14;12.02;;;4.30;;
75937;SDS011;64615;32.062;34.834;2023-10-19T05:41:40;13.45;;;4.28;;
75937;SDS011;64615;32.062;34.834;2023-10-19T05:44:06;13.00;;;4.45;;
75937;SDS011;64615;32.062;34.834;2023-10-19T05:46:32;14.38;;;4.50;;
75937;SDS011;64615;32.062;34.834;2023-10-19T05:48:58;10.13;;;4.03;;
75937;SDS011;64615;32.062;34.834;2023-10-19T05:51:26;12.48;;;4.63;;
75937;SDS011;64615;32.062;34.834;2023-10-19T05:53:52;16.77;;;4.63;;
75937;SDS011;64615;32.062;34.834;2023-10-19T05:56:19;8.90;;;3.97;;
75937;SDS011;64615;32.062;34.834;2023-10-19T05:58:46;12.10;;;4.32;;
75937;SDS011;64615;32.062;34.834;2023-10-19T06:01:16;11.88;;;4.32;;
75937;SDS011;64615;32.062;34.834;2023-10-19T06:03:43;10.45;;;4.03;;
75937;SDS011;64615;32.062;34.834;2023-10-19T06:06:08;12.70;;;4.10;;
75937;SDS011;64615;32.062;34.834;2023-10-19T06:08:34;10.15;;;4.10;;
75937;SDS011;64615;32.062;34.834;2023-10-19T06:11:00;9.95;;;4.20;;
75937;SDS011;64615;32.062;34.834;2023-10-19T06:13:25;11.25;;;4.80;;
75937;SDS011;64615;32.062;34.834;2023-10-19T06:15:51;12.15;;;4.40;;
75937;SDS011;64615;32.062;34.834;2023-10-19T06:18:17;13.73;;;4.30;;
75937;SDS011;64615;32.062;34.834;2023-10-19T06:20:46;10.68;;;4.10;;
75937;SDS011;64615;32.062;34.834;2023-10-19T06:23:13;13.15;;;4.30;;
75937;SDS011;64615;32.062;34.834;2023-10-19T06:25:38;14.32;;;4.90;;
75937;SDS011;64615;32.062;34.834;2023-10-19T06:28:04;14.63;;;4.35;;
75937;SDS011;64615;32.062;34.834;2023-10-19T06:30:31;16.73;;;5.00;;
75937;SDS011;64615;32.062;34.834;2023-10-19T06:32:57;14.98;;;4.93;;
75937;SDS011;64615;32.062;34.834;2023-10-19T06:35:27;15.75;;;4.93;;
75937;SDS011;64615;32.062;34.834;2023-10-19T06:37:56;13.27;;;5.07;;
75937;SDS011;64615;32.062;34.834;2023-10-19T06:40:24;17.00;;;4.63;;
75937;SDS011;64615;32.062;34.834;2023-10-19T06:42:52;13.10;;;4.85;;
75937;SDS011;64615;32.062;34.834;2023-10-19T06:45:23;13.70;;;4.88;;
75937;SDS011;64615;32.062;34.834;2023-10-19T06:47:51;15.30;;;4.93;;
75937;SDS011;64615;32.062;34.834;2023-10-19T06:50:19;13.02;;;4.88;;
75937;SDS011;64615;32.062;34.834;2023-10-19T06:52:45;10.98;;;4.63;;
75937;SDS011;64615;32.062;34.834;2023-10-19T06:55:13;17.20;;;5.13;;
75937;SDS011;64615;32.062;34.834;2023-10-19T06:57:44;12.82;;;4.80;;
75937;SDS011;64615;32.062;34.834;2023-10-19T07:00:11;16.55;;;5.30;;
75937;SDS011;64615;32.062;34.834;2023-10-19T07:02:41;16.50;;;4.88;;
75937;SDS011;64615;32.062;34.834;2023-10-19T07:05:08;17.98;;;5.43;;
75937;SDS011;64615;32.062;34.834;2023-10-19T07:07:41;10.30;;;4.90;;
75937;SDS011;64615;32.062;34.834;2023-10-19T07:10:08;16.67;;;5.28;;
75937;SDS011;64615;32.062;34.834;2023-10-19T07:12:35;13.05;;;4.60;;
75937;SDS011;64615;32.062;34.834;2023-10-19T07:15:02;16.25;;;5.45;;
75937;SDS011;64615;32.062;34.834;2023-10-19T07:17:38;16.52;;;5.07;;
75937;SDS011;64615;32.062;34.834;2023-10-19T07:20:07;14.02;;;5.30;;
75937;SDS011;64615;32.062;34.834;2023-10-19T07:22:46;14.05;;;5.20;;
75937;SDS011;64615;32.062;34.834;2023-10-19T07:25:12;20.23;;;5.85;;
75937;SDS011;64615;32.062;34.834;2023-10-19T07:27:38;12.52;;;4.78;;
75937;SDS011;64615;32.062;34.834;2023-10-19T07:30:08;14.65;;;5.57;;
75937;SDS011;64615;32.062;34.834;2023-10-19T07:32:34;15.30;;;5.22;;
75937;SDS011;64615;32.062;34.834;2023-10-19T07:35:01;13.57;;;5.38;;
75937;SDS011;64615;32.062;34.834;2023-10-19T07:37:26;16.23;;;5.22;;
75937;SDS011;64615;32.062;34.834;2023-10-19T07:39:54;12.02;;;5.57;;
75937;SDS011;64615;32.062;34.834;2023-10-19T07:44:47;14.65;;;4.95;;
75937;SDS011;64615;32.062;34.834;2023-10-19T07:47:14;14.32;;;5.68;;
75937;SDS011;64615;32.062;34.834;2023-10-19T07:49:40;15.07;;;4.93;;
75937;SDS011;64615;32.062;34.834;2023-10-19T07:52:06;16.35;;;4.93;;
75937;SDS011;64615;32.062;34.834;2023-10-19T07:54:33;12.90;;;4.97;;
75937;SDS011;64615;32.062;34.834;2023-10-19T07:57:00;12.52;;;5.20;;
75937;SDS011;64615;32.062;34.834;2023-10-19T07:59:33;14.25;;;5.18;;
75937;SDS011;64615;32.062;34.834;2023-10-19T08:01:59;18.80;;;4.90;;
75937;SDS011;64615;32.062;34.834;2023-10-19T08:04:29;12.55;;;4.63;;
75937;SDS011;64615;32.062;34.834;2023-10-19T08:06:56;14.65;;;5.15;;
75937;SDS011;64615;32.062;34.834;2023-10-19T08:09:22;12.63;;;5.05;;
75937;SDS011;64615;32.062;34.834;2023-10-19T08:11:48;12.63;;;4.70;;
75937;SDS011;64615;32.062;34.834;2023-10-19T08:14:14;12.15;;;4.90;;
75937;SDS011;64615;32.062;34.834;2023-10-19T08:16:40;8.82;;;4.38;;
75937;SDS011;64615;32.062;34.834;2023-10-19T08:19:08;12.48;;;4.60;;
75937;SDS011;64615;32.062;34.834;2023-10-19T08:21:34;12.15;;;4.07;;
75937;SDS011;64615;32.062;34.834;2023-10-19T08:24:00;11.00;;;4.47;;
75937;SDS011;64615;32.062;34.834;2023-10-19T08:26:30;11.02;;;4.72;;
75937;SDS011;64615;32.062;34.834;2023-10-19T08:28:56;12.20;;;4.53;;
75937;SDS011;64615;32.062;34.834;2023-10-19T08:31:25;11.10;;;4.15;;
75937;SDS011;64615;32.062;34.834;2023-10-19T08:33:50;10.05;;;4.55;;
75937;SDS011;64615;32.062;34.834;2023-10-19T08:36:19;10.70;;;4.50;;
75937;SDS011;64615;32.062;34.834;2023-10-19T08:38:46;13.23;;;4.38;;
75937;SDS011;64615;32.062;34.834;2023-10-19T08:41:13;11.02;;;5.00;;
75937;SDS011;64615;32.062;34.834;2023-10-19T08:43:40;9.77;;;4.20;;
75937;SDS011;64615;32.062;34.834;2023-10-19T08:46:06;9.52;;;4.10;;
75937;SDS011;64615;32.062;34.834;2023-10-19T08:48:35;11.63;;;4.18;;
75937;SDS011;64615;32.062;34.834;2023-10-19T08:51:03;11.15;;;4.07;;
75937;SDS011;64615;32.062;34.834;2023-10-19T08:53:36;13.32;;;4.70;;
75937;SDS011;64615;32.062;34.834;2023-10-19T08:56:06;11.27;;;3.90;;
75937;SDS011;64615;32.062;34.834;2023-10-19T08:58:36;10.63;;;3.92;;
75937;SDS011;64615;32.062;34.834;2023-10-19T09:01:02;9.27;;;4.28;;
75937;SDS011;64615;32.062;34.834;2023-10-19T09:03:32;10.68;;;4.55;;
75937;SDS011;64615;32.062;34.834;2023-10-19T09:06:01;8.68;;;3.97;;
75937;SDS011;64615;32.062;34.834;2023-10-19T09:08:28;11.13;;;4.18;;
75937;SDS011;64615;32.062;34.834;2023-10-19T09:11:06;8.27;;;3.92;;
75937;SDS011;64615;32.062;34.834;2023-10-19T09:13:47;8.38;;;4.00;;
75937;SDS011;64615;32.062;34.834;2023-10-19T09:16:20;10.73;;;3.95;;
75937;SDS011;64615;32.062;34.834;2023-10-19T09:18:47;10.95;;;4.20;;
75937;SDS011;64615;32.062;34.834;2023-10-19T09:21:17;11.20;;;4.15;;
75937;SDS011;64615;32.062;34.834;2023-10-19T09:23:56;10.73;;;3.83;;
75937;SDS011;64615;32.062;34.834;2023-10-19T09:26:23;8.55;;;3.70;;
75937;SDS011;64615;32.062;34.834;2023-10-19T09:28:50;10.27;;;4.05;;
75937;SDS011;64615;32.062;34.834;2023-10-19T09:31:17;8.25;;;3.65;;
75937;SDS011;64615;32.062;34.834;2023-10-19T09:33:44;8.63;;;3.88;;
75937;SDS011;64615;32.062;34.834;2023-10-19T09:36:12;11.77;;;3.60;;
75937;SDS011;64615;32.062;34.834;2023-10-19T09:38:48;7.68;;;3.80;;
75937;SDS011;64615;32.062;34.834;2023-10-19T09:41:19;8.40;;;3.70;;
75937;SDS011;64615;32.062;34.834;2023-10-19T09:43:53;8.07;;;3.63;;
75937;SDS011;64615;32.062;34.834;2023-10-19T09:46:29;9.18;;;3.72;;
75937;SDS011;64615;32.062;34.834;2023-10-19T09:48:57;8.40;;;3.50;;
75937;SDS011;64615;32.062;34.834;2023-10-19T09:51:23;10.20;;;3.45;;
75937;SDS011;64615;32.062;34.834;2023-10-19T09:53:58;9.57;;;3.70;;
75937;SDS011;64615;32.062;34.834;2023-10-19T09:56:46;7.43;;;3.33;;
75937;SDS011;64615;32.062;34.834;2023-10-19T09:59:29;11.15;;;3.63;;
75937;SDS011;64615;32.062;34.834;2023-10-19T10:04:31;7.07;;;3.20;;
75937;SDS011;64615;32.062;34.834;2023-10-19T10:06:58;10.30;;;3.97;;
75937;SDS011;64615;32.062;34.834;2023-10-19T10:09:25;7.72;;;3.10;;
75937;SDS011;64615;32.062;34.834;2023-10-19T10:11:54;10.65;;;3.55;;
75937;SDS011;64615;32.062;34.834;2023-10-19T10:14:23;10.35;;;3.50;;
75937;SDS011;64615;32.062;34.834;2023-10-19T10:17:03;8.02;;;3.50;;
75937;SDS011;64615;32.062;34.834;2023-10-19T10:19:34;8.15;;;3.47;;
75937;SDS011;64615;32.062;34.834;2023-10-19T10:22:04;8.77;;;3.35;;
75937;SDS011;64615;32.062;34.834;2023-10-19T10:24:42;7.78;;;3.55;;
75937;SDS011;64615;32.062;34.834;2023-10-19T10:27:08;6.47;;;3.20;;
75937;SDS011;64615;32.062;34.834;2023-10-19T10:29:53;10.45;;;3.60;;
75937;SDS011;64615;32.062;34.834;2023-10-19T10:32:47;11.55;;;3.60;;
75937;SDS011;64615;32.062;34.834;2023-10-19T10:38:02;8.65;;;3.50;;
75937;SDS011;64615;32.062;34.834;2023-10-19T10:40:31;8.60;;;3.30;;
75937;SDS011;64615;32.062;34.834;2023-10-19T10:43:06;10.18;;;3.30;;
75937;SDS011;64615;32.062;34.834;2023-10-19T10:45:32;10.02;;;3.15;;
75937;SDS011;64615;32.062;34.834;2023-10-19T10:47:58;10.55;;;3.45;;
75937;SDS011;64615;32.062;34.834;2023-10-19T10:50:26;8.70;;;3.22;;
75937;SDS011;64615;32.062;34.834;2023-10-19T10:52:54;8.73;;;3.50;;
75937;SDS011;64615;32.062;34.834;2023-10-19T10:55:23;7.13;;;2.80;;
75937;SDS011;64615;32.062;34.834;2023-10-19T10:57:52;7.30;;;3.20;;
75937;SDS011;64615;32.062;34.834;2023-10-19T11:00:19;8.88;;;3.45;;
75937;SDS011;64615;32.062;34.834;2023-10-19T11:02:46;7.05;;;3.22;;
75937;SDS011;64615;32.062;34.834;2023-10-19T11:05:13;7.93;;;2.95;;
75937;SDS011;64615;32.062;34.834;2023-10-19T11:07:40;12.23;;;3.75;;
75937;SDS011;64615;32.062;34.834;2023-10-19T11:10:07;8.55;;;3.08;;
75937;SDS011;64615;32.062;34.834;2023-10-19T11:12:36;7.80;;;3.22;;
75937;SDS011;64615;32.062;34.834;2023-10-19T11:15:02;7.50;;;2.72;;
75937;SDS011;64615;32.062;34.834;2023-10-19T11:17:41;9.68;;;3.42;;
75937;SDS011;64615;32.062;34.834;2023-10-19T11:20:09;8.55;;;3.15;;
75937;SDS011;64615;32.062;34.834;2023-10-19T11:22:49;7.90;;;2.85;;
75937;SDS011;64615;32.062;34.834;2023-10-19T11:25:19;10.95;;;3.13;;
75937;SDS011;64615;32.062;34.834;2023-10-19T11:27:46;7.65;;;3.08;;
75937;SDS011;64615;32.062;34.834;2023-10-19T11:30:12;7.47;;;3.05;;
75937;SDS011;64615;32.062;34.834;2023-10-19T11:32:47;7.32;;;3.38;;
75937;SDS011;64615;32.062;34.834;2023-10-19T11:35:13;7.80;;;2.70;;
75937;SDS011;64615;32.062;34.834;2023-10-19T11:37:51;7.75;;;3.00;;
75937;SDS011;64615;32.062;34.834;2023-10-19T11:40:21;8.05;;;3.00;;
75937;SDS011;64615;32.062;34.834;2023-10-19T11:42:48;8.88;;;3.15;;
75937;SDS011;64615;32.062;34.834;2023-10-19T11:45:14;7.60;;;3.05;;
75937;SDS011;64615;32.062;34.834;2023-10-19T11:47:42;6.15;;;2.80;;
75937;SDS011;64615;32.062;34.834;2023-10-19T11:50:10;6.50;;;2.80;;
75937;SDS011;64615;32.062;34.834;2023-10-19T11:52:41;8.10;;;2.88;;
75937;SDS011;64615;32.062;34.834;2023-10-19T11:55:07;6.35;;;3.13;;
75937;SDS011;64615;32.062;34.834;2023-10-19T11:57:36;7.20;;;2.72;;
75937;SDS011;64615;32.062;34.834;2023-10-19T12:00:03;7.75;;;3.47;;
75937;SDS011;64615;32.062;34.834;2023-10-19T12:02:34;7.75;;;2.90;;
75937;SDS011;64615;32.062;34.834;2023-10-19T12:05:04;6.63;;;2.78;;
75937;SDS011;64615;32.062;34.834;2023-10-19T12:07:35;8.27;;;2.92;;
75937;SDS011;64615;32.062;34.834;2023-10-19T12:10:01;7.07;;;2.97;;
75937;SDS011;64615;32.062;34.834;2023-10-19T12:12:28;9.88;;;3.20;;
75937;SDS011;64615;32.062;34.834;2023-10-19T12:14:54;6.15;;;2.80;;
75937;SDS011;64615;32.062;34.834;2023-10-19T12:17:20;7.38;;;3.10;;
75937;SDS011;64615;32.062;34.834;2023-10-19T12:19:47;8.85;;;2.70;;
75937;SDS011;64615;32.062;34.834;2023-10-19T12:22:13;7.00;;;2.95;;
75937;SDS011;64615;32.062;34.834;2023-10-19T12:24:38;6.18;;;2.67;;
75937;SDS011;64615;32.062;34.834;2023-10-19T12:27:04;6.70;;;2.70;;
75937;SDS011;64615;32.062;34.834;2023-10-19T12:29:30;9.13;;;3.08;;
75937;SDS011;64615;32.062;34.834;2023-10-19T12:31:57;8.82;;;3.30;;
75937;SDS011;64615;32.062;34.834;2023-10-19T12:34:22;7.22;;;2.90;;
75937;SDS011;64615;32.062;34.834;2023-10-19T12:36:48;9.25;;;3.10;;
75937;SDS011;64615;32.062;34.834;2023-10-19T12:39:16;6.53;;;2.47;;
75937;SDS011;64615;32.062;34.834;2023-10-19T12:42:00;5.80;;;2.80;;
75937;SDS011;64615;32.062;34.834;2023-10-19T12:44:26;6.43;;;2.70;;
75937;SDS011;64615;32.062;34.834;2023-10-19T12:46:55;7.03;;;2.80;;
75937;SDS011;64615;32.062;34.834;2023-10-19T12:49:22;5.88;;;2.60;;
75937;SDS011;64615;32.062;34.834;2023-10-19T12:51:54;7.13;;;2.42;;
75937;SDS011;64615;32.062;34.834;2023-10-19T12:54:19;8.35;;;2.67;;
75937;SDS011;64615;32.062;34.834;2023-10-19T12:56:45;7.93;;;2.85;;
75937;SDS011;64615;32.062;34.834;2023-10-19T12:59:14;5.03;;;2.70;;
75937;SDS011;64615;32.062;34.834;2023-10-19T13:01:43;7.90;;;2.80;;
75937;SDS011;64615;32.062;34.834;2023-10-19T13:04:10;8.18;;;3.00;;
75937;SDS011;64615;32.062;34.834;2023-10-19T13:06:43;5.97;;;2.65;;
75937;SDS011;64615;32.062;34.834;2023-10-19T13:09:09;5.78;;;2.58;;
75937;SDS011;64615;32.062;34.834;2023-10-19T13:11:35;6.53;;;2.97;;
75937;SDS011;64615;32.062;34.834;2023-10-19T13:14:01;6.38;;;2.80;;
75937;SDS011;64615;32.062;34.834;2023-10-19T13:16:26;8.40;;;2.67;;
75937;SDS011;64615;32.062;34.834;2023-10-19T13:18:53;6.05;;;2.65;;
75937;SDS011;64615;32.062;34.834;2023-10-19T13:21:19;8.32;;;2.88;;
75937;SDS011;64615;32.062;34.834;2023-10-19T13:23:52;6.40;;;2.50;;
75937;SDS011;64615;32.062;34.834;2023-10-19T13:26:18;7.30;;;3.10;;
75937;SDS011;64615;32.062;34.834;2023-10-19T13:28:44;8.43;;;2.85;;
75937;SDS011;64615;32.062;34.834;2023-10-19T13:31:12;6.97;;;2.75;;
75937;SDS011;64615;32.062;34.834;2023-10-19T13:33:40;6.10;;;2.55;;
75937;SDS011;64615;32.062;34.834;2023-10-19T13:36:10;6.57;;;2.70;;
75937;SDS011;64615;32.062;34.834;2023-10-19T13:38:37;7.35;;;2.80;;
75937;SDS011;64615;32.062;34.834;2023-10-19T13:41:03;6.20;;;2.60;;
75937;SDS011;64615;32.062;34.834;2023-10-19T13:43:34;6.45;;;2.60;;
75937;SDS011;64615;32.062;34.834;2023-10-19T13:46:00;7.65;;;2.80;;
75937;SDS011;64615;32.062;34.834;2023-10-19T13:48:27;7.50;;;2.47;;
75937;SDS011;64615;32.062;34.834;2023-10-19T13:50:52;8.80;;;2.90;;
75937;SDS011;64615;32.062;34.834;2023-10-19T13:53:25;8.05;;;2.85;;
75937;SDS011;64615;32.062;34.834;2023-10-19T13:55:52;6.60;;;2.58;;
75937;SDS011;64615;32.062;34.834;2023-10-19T13:58:18;6.45;;;2.63;;
75937;SDS011;64615;32.062;34.834;2023-10-19T14:00:44;5.93;;;2.67;;
75937;SDS011;64615;32.062;34.834;2023-10-19T14:03:13;7.60;;;2.30;;
75937;SDS011;64615;32.062;34.834;2023-10-19T14:05:40;8.40;;;3.00;;
75937;SDS011;64615;32.062;34.834;2023-10-19T14:08:13;6.68;;;2.78;;
75937;SDS011;64615;32.062;34.834;2023-10-19T14:10:40;7.45;;;2.83;;
75937;SDS011;64615;32.062;34.834;2023-10-19T14:13:08;16.80;;;2.90;;
75937;SDS011;64615;32.062;34.834;2023-10-19T14:15:36;7.95;;;2.63;;
75937;SDS011;64615;32.062;34.834;2023-10-19T14:18:03;12.70;;;2.70;;
75937;SDS011;64615;32.062;34.834;2023-10-19T14:20:30;7.20;;;2.50;;
75937;SDS011;64615;32.062;34.834;2023-10-19T14:22:57;10.13;;;2.47;;
75937;SDS011;64615;32.062;34.834;2023-10-19T14:25:23;11.57;;;2.80;;
75937;SDS011;64615;32.062;34.834;2023-10-19T14:27:49;11.30;;;2.80;;
75937;SDS011;64615;32.062;34.834;2023-10-19T14:30:17;10.18;;;3.22;;
75937;SDS011;64615;32.062;34.834;2023-10-19T14:32:47;12.52;;;2.90;;
75937;SDS011;64615;32.062;34.834;2023-10-19T14:35:14;15.10;;;2.72;;
75937;SDS011;64615;32.062;34.834;2023-10-19T14:37:42;8.68;;;2.60;;
75937;SDS011;64615;32.062;34.834;2023-10-19T14:40:09;6.95;;;2.50;;
75937;SDS011;64615;32.062;34.834;2023-10-19T14:42:42;11.20;;;2.80;;
75937;SDS011;64615;32.062;34.834;2023-10-19T14:45:08;7.32;;;2.60;;
75937;SDS011;64615;32.062;34.834;2023-10-19T14:47:36;6.75;;;2.58;;
75937;SDS011;64615;32.062;34.834;2023-10-19T14:50:03;6.00;;;2.40;;